Terminal Aerodrome Forecast
Issued by NWS Spokane, WA

Home | Current Version | Previous Version | Text Only | Print | Product List | Glossary On
Versions: 1 2 3 4 5 6 7 8 9 10 11 12 13 14 15 16 17 18 19 20 21 22 23 24 25 26 27
842
FTUS46 KOTX 120523
TAFLWS
TAF
KLWS 120523Z 1206/1306 12006KT P6SM -RA SCT030 BKN045 OVC070
     FM120800 12006KT P6SM SCT030 BKN045 OVC070
     FM121200 11005KT P6SM SCT100 BKN250
     FM130400 22007KT P6SM -RA SCT030 BKN045 OVC070=

USA.gov is the U.S. government's official web portal to all federal, state and local government web resources and services.